Terminal Aerodrome Forecast
Issued by NWS Jackson, MS

Home | Current Version | Previous Version | Text Only | Print | Product List | Glossary On
Versions: 1 2 3 4 5 6 7 8 9 10 11 12 13 14
000
FTUS44 KJAN 251121
TAFGLH
TAF
KGLH 251121Z 2512/2612 19010KT P6SM BKN009 BKN100
     FM251430 21014KT P6SM BKN015 BKN100
     FM251530 22018G26KT P6SM FEW025 SCT040
     FM260000 24012KT P6SM FEW050
     FM260800 29006KT P6SM SKC=

USA.gov is the U.S. government's official web portal to all federal, state and local government web resources and services.